Madisonville, Kentucky
Current Conditions -  °F | °C
As of 10:55 AM on Tuesday 27 Jan 2015 (Local Time) from K2I0 Reporting Station
Haze Haze  
Wind Chill: 32°   Ceiling: 900
Heat Index: 37°   Visibility: 5mi
Dew Point: 34°   Wind: 6mph
Humidity: 89%   Direction: 360°N
Pressure: 30.11"   Gusts: NA
Location:  37.33°N, 87.5°W
Report Text: K2I0 271655Z AUTO 36005KT 5SM BR OVC009 03/01 A3011 RMK AO2 T00270011
Loading
Personal Weather Stations






























Interactive Weather Map New forecast layout! Learn more

10-Day Weather Forecast

Advertisements
Track Severe Weather on mobile